sensor_id;sensor_type;location;lat;lon;timestamp;temperature;humidity
7296;DHT22;40758;54.038;11.684;2022-09-01T00:00:17;10.00;99.90
7296;DHT22;40758;54.038;11.684;2022-09-01T00:02:47;10.00;99.90
7296;DHT22;40758;54.038;11.684;2022-09-01T00:05:17;9.90;99.90
7296;DHT22;40758;54.038;11.684;2022-09-01T00:07:47;9.90;99.90
7296;DHT22;40758;54.038;11.684;2022-09-01T00:10:16;9.90;99.90
7296;DHT22;40758;54.038;11.684;2022-09-01T00:12:44;9.90;99.90
7296;DHT22;40758;54.038;11.684;2022-09-01T00:15:13;9.90;99.90
7296;DHT22;40758;54.038;11.684;2022-09-01T00:17:42;9.90;99.90
7296;DHT22;40758;54.038;11.684;2022-09-01T00:20:10;9.90;99.90
7296;DHT22;40758;54.038;11.684;2022-09-01T00:22:47;9.90;99.90
7296;DHT22;40758;54.038;11.684;2022-09-01T00:25:16;9.90;99.90
7296;DHT22;40758;54.038;11.684;2022-09-01T00:27:46;9.80;99.90
7296;DHT22;40758;54.038;11.684;2022-09-01T00:30:16;9.80;99.90
7296;DHT22;40758;54.038;11.684;2022-09-01T00:32:48;9.90;99.90
7296;DHT22;40758;54.038;11.684;2022-09-01T00:35:18;9.80;99.90
7296;DHT22;40758;54.038;11.684;2022-09-01T00:37:48;9.90;99.90
7296;DHT22;40758;54.038;11.684;2022-09-01T00:40:17;10.10;99.90
7296;DHT22;40758;54.038;11.684;2022-09-01T00:42:46;10.10;99.90
7296;DHT22;40758;54.038;11.684;2022-09-01T00:45:16;10.00;99.90
7296;DHT22;40758;54.038;11.684;2022-09-01T00:47:48;9.90;99.90
7296;DHT22;40758;54.038;11.684;2022-09-01T00:50:19;9.80;99.90
7296;DHT22;40758;54.038;11.684;2022-09-01T00:52:51;9.70;99.90
7296;DHT22;40758;54.038;11.684;2022-09-01T00:55:25;9.70;99.90
7296;DHT22;40758;54.038;11.684;2022-09-01T00:57:59;9.60;99.90
7296;DHT22;40758;54.038;11.684;2022-09-01T01:00:31;9.60;99.90
7296;DHT22;40758;54.038;11.684;2022-09-01T01:05:19;9.70;99.90
7296;DHT22;40758;54.038;11.684;2022-09-01T01:07:49;9.70;99.90
7296;DHT22;40758;54.038;11.684;2022-09-01T01:10:19;9.70;99.90
7296;DHT22;40758;54.038;11.684;2022-09-01T01:12:51;9.70;99.90
7296;DHT22;40758;54.038;11.684;2022-09-01T01:15:20;9.60;99.90
7296;DHT22;40758;54.038;11.684;2022-09-01T01:17:48;9.60;99.90
7296;DHT22;40758;54.038;11.684;2022-09-01T01:20:19;9.70;99.90
7296;DHT22;40758;54.038;11.684;2022-09-01T01:23:19;9.80;99.90
7296;DHT22;40758;54.038;11.684;2022-09-01T01:25:56;9.80;99.90
7296;DHT22;40758;54.038;11.684;2022-09-01T01:28:27;9.70;99.90
7296;DHT22;40758;54.038;11.684;2022-09-01T01:30:59;9.60;99.90
7296;DHT22;40758;54.038;11.684;2022-09-01T01:33:33;9.50;99.90
7296;DHT22;40758;54.038;11.684;2022-09-01T01:36:10;9.50;99.90
7296;DHT22;40758;54.038;11.684;2022-09-01T01:38:44;9.50;99.90
7296;DHT22;40758;54.038;11.684;2022-09-01T01:41:17;9.50;99.90
7296;DHT22;40758;54.038;11.684;2022-09-01T01:43:47;9.50;99.90
7296;DHT22;40758;54.038;11.684;2022-09-01T01:46:17;9.50;99.90
7296;DHT22;40758;54.038;11.684;2022-09-01T01:48:48;9.50;99.90
7296;DHT22;40758;54.038;11.684;2022-09-01T01:51:19;9.40;99.90
7296;DHT22;40758;54.038;11.684;2022-09-01T01:53:51;9.40;99.90
7296;DHT22;40758;54.038;11.684;2022-09-01T01:56:23;9.40;99.90
7296;DHT22;40758;54.038;11.684;2022-09-01T01:58:53;9.30;99.90
7296;DHT22;40758;54.038;11.684;2022-09-01T02:01:24;9.30;99.90
7296;DHT22;40758;54.038;11.684;2022-09-01T02:03:56;9.20;99.90
7296;DHT22;40758;54.038;11.684;2022-09-01T02:06:27;9.20;99.90
7296;DHT22;40758;54.038;11.684;2022-09-01T02:08:56;9.20;99.90
7296;DHT22;40758;54.038;11.684;2022-09-01T02:11:29;9.10;99.90
7296;DHT22;40758;54.038;11.684;2022-09-01T02:13:59;9.10;99.90
7296;DHT22;40758;54.038;11.684;2022-09-01T02:16:30;9.10;99.90
7296;DHT22;40758;54.038;11.684;2022-09-01T02:19:02;9.10;99.90
7296;DHT22;40758;54.038;11.684;2022-09-01T02:21:33;9.10;99.90
7296;DHT22;40758;54.038;11.684;2022-09-01T02:24:05;9.10;99.90
7296;DHT22;40758;54.038;11.684;2022-09-01T02:26:38;9.10;99.90
7296;DHT22;40758;54.038;11.684;2022-09-01T02:29:18;9.10;99.90
7296;DHT22;40758;54.038;11.684;2022-09-01T02:31:51;9.00;99.90
7296;DHT22;40758;54.038;11.684;2022-09-01T02:34:22;8.90;99.90
7296;DHT22;40758;54.038;11.684;2022-09-01T02:36:56;8.90;99.90
7296;DHT22;40758;54.038;11.684;2022-09-01T02:39:27;8.90;99.90
7296;DHT22;40758;54.038;11.684;2022-09-01T02:42:01;8.80;99.90
7296;DHT22;40758;54.038;11.684;2022-09-01T02:44:29;8.80;99.90
7296;DHT22;40758;54.038;11.684;2022-09-01T02:46:58;8.80;99.90
7296;DHT22;40758;54.038;11.684;2022-09-01T02:49:28;8.80;99.90
7296;DHT22;40758;54.038;11.684;2022-09-01T02:51:58;8.70;99.90
7296;DHT22;40758;54.038;11.684;2022-09-01T02:54:29;8.80;99.90
7296;DHT22;40758;54.038;11.684;2022-09-01T02:57:01;8.80;99.90
7296;DHT22;40758;54.038;11.684;2022-09-01T02:59:30;8.90;99.90
7296;DHT22;40758;54.038;11.684;2022-09-01T03:05:20;8.90;99.90
7296;DHT22;40758;54.038;11.684;2022-09-01T03:07:52;8.90;99.90
7296;DHT22;40758;54.038;11.684;2022-09-01T03:10:28;9.00;99.90
7296;DHT22;40758;54.038;11.684;2022-09-01T03:13:00;9.10;99.90
7296;DHT22;40758;54.038;11.684;2022-09-01T03:15:31;9.30;99.90
7296;DHT22;40758;54.038;11.684;2022-09-01T03:18:00;9.30;99.90
7296;DHT22;40758;54.038;11.684;2022-09-01T03:20:33;9.40;99.90
7296;DHT22;40758;54.038;11.684;2022-09-01T03:23:06;9.40;99.90
7296;DHT22;40758;54.038;11.684;2022-09-01T03:25:36;9.30;99.90
7296;DHT22;40758;54.038;11.684;2022-09-01T03:28:05;9.20;99.90
7296;DHT22;40758;54.038;11.684;2022-09-01T03:30:36;9.10;99.90
7296;DHT22;40758;54.038;11.684;2022-09-01T03:33:07;9.00;99.90
7296;DHT22;40758;54.038;11.684;2022-09-01T03:35:38;8.90;99.90
7296;DHT22;40758;54.038;11.684;2022-09-01T03:38:07;8.90;99.90
7296;DHT22;40758;54.038;11.684;2022-09-01T03:40:39;8.90;99.90
7296;DHT22;40758;54.038;11.684;2022-09-01T03:43:08;8.80;99.90
7296;DHT22;40758;54.038;11.684;2022-09-01T03:45:40;8.80;99.90
7296;DHT22;40758;54.038;11.684;2022-09-01T03:48:09;8.70;99.90
7296;DHT22;40758;54.038;11.684;2022-09-01T03:50:41;8.70;99.90
7296;DHT22;40758;54.038;11.684;2022-09-01T03:53:13;8.70;99.90
7296;DHT22;40758;54.038;11.684;2022-09-01T03:55:45;8.70;99.90
7296;DHT22;40758;54.038;11.684;2022-09-01T03:58:17;8.80;99.90
7296;DHT22;40758;54.038;11.684;2022-09-01T04:00:49;8.80;99.90
7296;DHT22;40758;54.038;11.684;2022-09-01T04:03:24;8.90;99.90
7296;DHT22;40758;54.038;11.684;2022-09-01T04:06:00;8.90;99.90
7296;DHT22;40758;54.038;11.684;2022-09-01T04:08:29;8.80;99.90
7296;DHT22;40758;54.038;11.684;2022-09-01T04:11:00;8.90;99.90
7296;DHT22;40758;54.038;11.684;2022-09-01T04:13:34;8.90;99.90
7296;DHT22;40758;54.038;11.684;2022-09-01T04:16:06;8.90;99.90
7296;DHT22;40758;54.038;11.684;2022-09-01T04:19:03;8.90;99.90
7296;DHT22;40758;54.038;11.684;2022-09-01T04:21:43;9.00;99.90
7296;DHT22;40758;54.038;11.684;2022-09-01T04:24:12;9.10;99.90
7296;DHT22;40758;54.038;11.684;2022-09-01T04:26:41;9.00;99.90
7296;DHT22;40758;54.038;11.684;2022-09-01T04:29:14;8.90;99.90
7296;DHT22;40758;54.038;11.684;2022-09-01T04:31:45;8.80;99.90
7296;DHT22;40758;54.038;11.684;2022-09-01T04:34:20;8.80;99.90
7296;DHT22;40758;54.038;11.684;2022-09-01T04:36:54;8.80;99.90
7296;DHT22;40758;54.038;11.684;2022-09-01T04:39:24;8.80;99.90
7296;DHT22;40758;54.038;11.684;2022-09-01T04:41:54;8.90;99.90
7296;DHT22;40758;54.038;11.684;2022-09-01T04:44:22;9.00;99.90
7296;DHT22;40758;54.038;11.684;2022-09-01T04:46:52;8.90;99.90
7296;DHT22;40758;54.038;11.684;2022-09-01T04:49:21;9.00;99.90
7296;DHT22;40758;54.038;11.684;2022-09-01T04:51:54;9.00;99.90
7296;DHT22;40758;54.038;11.684;2022-09-01T04:54:22;9.00;99.90
7296;DHT22;40758;54.038;11.684;2022-09-01T04:56:51;9.10;99.90
7296;DHT22;40758;54.038;11.684;2022-09-01T04:59:22;9.10;99.90
7296;DHT22;40758;54.038;11.684;2022-09-01T05:05:24;9.20;99.90
7296;DHT22;40758;54.038;11.684;2022-09-01T05:07:56;9.30;99.90
7296;DHT22;40758;54.038;11.684;2022-09-01T05:10:25;9.30;99.90
7296;DHT22;40758;54.038;11.684;2022-09-01T05:12:57;9.40;99.90
7296;DHT22;40758;54.038;11.684;2022-09-01T05:15:37;9.50;99.90
7296;DHT22;40758;54.038;11.684;2022-09-01T05:18:08;9.60;99.90
7296;DHT22;40758;54.038;11.684;2022-09-01T05:20:40;9.70;99.90
7296;DHT22;40758;54.038;11.684;2022-09-01T05:23:11;9.90;99.90
7296;DHT22;40758;54.038;11.684;2022-09-01T05:25:42;10.10;99.90
7296;DHT22;40758;54.038;11.684;2022-09-01T05:28:11;10.30;99.90
7296;DHT22;40758;54.038;11.684;2022-09-01T05:30:40;10.60;99.90
7296;DHT22;40758;54.038;11.684;2022-09-01T05:33:13;11.00;99.90
7296;DHT22;40758;54.038;11.684;2022-09-01T05:35:54;11.50;99.90
7296;DHT22;40758;54.038;11.684;2022-09-01T05:38:26;11.90;99.90
7296;DHT22;40758;54.038;11.684;2022-09-01T05:40:58;12.30;99.90
7296;DHT22;40758;54.038;11.684;2022-09-01T05:43:30;12.70;99.90
7296;DHT22;40758;54.038;11.684;2022-09-01T05:46:00;13.40;99.90
7296;DHT22;40758;54.038;11.684;2022-09-01T05:48:33;14.60;99.90
7296;DHT22;40758;54.038;11.684;2022-09-01T05:51:09;15.30;99.90
7296;DHT22;40758;54.038;11.684;2022-09-01T05:54:03;15.60;99.90
7296;DHT22;40758;54.038;11.684;2022-09-01T05:56:36;15.50;99.90
7296;DHT22;40758;54.038;11.684;2022-09-01T05:59:11;15.20;99.90
7296;DHT22;40758;54.038;11.684;2022-09-01T06:01:50;14.90;99.90
7296;DHT22;40758;54.038;11.684;2022-09-01T06:04:20;14.70;99.90
7296;DHT22;40758;54.038;11.684;2022-09-01T06:06:53;14.50;99.90
7296;DHT22;40758;54.038;11.684;2022-09-01T06:09:36;14.40;99.90
7296;DHT22;40758;54.038;11.684;2022-09-01T06:12:06;14.10;99.90
7296;DHT22;40758;54.038;11.684;2022-09-01T06:14:44;14.10;99.90
7296;DHT22;40758;54.038;11.684;2022-09-01T06:17:15;14.00;99.90
7296;DHT22;40758;54.038;11.684;2022-09-01T06:19:45;14.00;99.90
7296;DHT22;40758;54.038;11.684;2022-09-01T06:22:15;14.10;99.90
7296;DHT22;40758;54.038;11.684;2022-09-01T06:24:45;14.40;99.90
7296;DHT22;40758;54.038;11.684;2022-09-01T06:27:21;14.60;99.90
7296;DHT22;40758;54.038;11.684;2022-09-01T06:29:53;14.80;99.90
7296;DHT22;40758;54.038;11.684;2022-09-01T06:32:22;15.20;99.90
7296;DHT22;40758;54.038;11.684;2022-09-01T06:34:52;15.50;99.90
7296;DHT22;40758;54.038;11.684;2022-09-01T06:37:25;15.80;99.90
7296;DHT22;40758;54.038;11.684;2022-09-01T06:39:54;16.10;99.90
7296;DHT22;40758;54.038;11.684;2022-09-01T06:42:23;16.30;99.90
7296;DHT22;40758;54.038;11.684;2022-09-01T06:44:52;16.30;99.90
7296;DHT22;40758;54.038;11.684;2022-09-01T06:47:21;16.30;99.90
7296;DHT22;40758;54.038;11.684;2022-09-01T06:49:50;16.90;99.90
7296;DHT22;40758;54.038;11.684;2022-09-01T06:52:25;17.20;99.90
7296;DHT22;40758;54.038;11.684;2022-09-01T06:54:54;18.90;99.90
7296;DHT22;40758;54.038;11.684;2022-09-01T06:57:23;20.90;99.90
7296;DHT22;40758;54.038;11.684;2022-09-01T07:00:17;22.90;99.90
7296;DHT22;40758;54.038;11.684;2022-09-01T07:05:19;26.80;99.90
7296;DHT22;40758;54.038;11.684;2022-09-01T07:08:12;27.60;99.90
7296;DHT22;40758;54.038;11.684;2022-09-01T07:10:49;28.50;99.90
7296;DHT22;40758;54.038;11.684;2022-09-01T07:13:43;29.30;99.90
7296;DHT22;40758;54.038;11.684;2022-09-01T07:16:34;29.70;77.50
7296;DHT22;40758;54.038;11.684;2022-09-01T07:19:26;30.30;75.00
7296;DHT22;40758;54.038;11.684;2022-09-01T07:22:16;30.60;65.60
7296;DHT22;40758;54.038;11.684;2022-09-01T07:25:09;30.90;59.80
7296;DHT22;40758;54.038;11.684;2022-09-01T07:27:39;31.10;56.60
7296;DHT22;40758;54.038;11.684;2022-09-01T07:30:18;30.80;56.50
7296;DHT22;40758;54.038;11.684;2022-09-01T07:32:50;31.20;54.50
7296;DHT22;40758;54.038;11.684;2022-09-01T07:35:21;31.10;57.80
7296;DHT22;40758;54.038;11.684;2022-09-01T07:37:52;31.60;51.60
7296;DHT22;40758;54.038;11.684;2022-09-01T07:40:41;31.70;51.60
7296;DHT22;40758;54.038;11.684;2022-09-01T07:43:30;31.80;50.70
7296;DHT22;40758;54.038;11.684;2022-09-01T07:46:03;32.00;48.50
7296;DHT22;40758;54.038;11.684;2022-09-01T07:48:53;32.10;49.50
7296;DHT22;40758;54.038;11.684;2022-09-01T07:51:42;31.60;48.70
7296;DHT22;40758;54.038;11.684;2022-09-01T07:54:18;31.40;49.30
7296;DHT22;40758;54.038;11.684;2022-09-01T07:56:51;31.50;49.50
7296;DHT22;40758;54.038;11.684;2022-09-01T07:59:20;31.20;48.70
7296;DHT22;40758;54.038;11.684;2022-09-01T08:01:49;29.50;52.80
7296;DHT22;40758;54.038;11.684;2022-09-01T08:04:18;28.30;62.90
7296;DHT22;40758;54.038;11.684;2022-09-01T08:06:49;28.90;65.50
7296;DHT22;40758;54.038;11.684;2022-09-01T08:09:19;30.20;58.50
7296;DHT22;40758;54.038;11.684;2022-09-01T08:12:05;30.00;54.60
7296;DHT22;40758;54.038;11.684;2022-09-01T08:14:34;30.20;53.00
7296;DHT22;40758;54.038;11.684;2022-09-01T08:17:04;28.90;58.00
7296;DHT22;40758;54.038;11.684;2022-09-01T08:19:43;27.20;69.90
7296;DHT22;40758;54.038;11.684;2022-09-01T08:22:13;25.40;99.90
7296;DHT22;40758;54.038;11.684;2022-09-01T08:24:43;24.00;99.90
7296;DHT22;40758;54.038;11.684;2022-09-01T08:27:15;23.30;99.90
7296;DHT22;40758;54.038;11.684;2022-09-01T08:29:45;23.00;99.90
7296;DHT22;40758;54.038;11.684;2022-09-01T08:32:14;23.30;99.90
7296;DHT22;40758;54.038;11.684;2022-09-01T08:34:43;23.50;99.90
7296;DHT22;40758;54.038;11.684;2022-09-01T08:37:12;24.50;99.90
7296;DHT22;40758;54.038;11.684;2022-09-01T08:39:40;24.50;99.90
7296;DHT22;40758;54.038;11.684;2022-09-01T08:42:16;24.80;99.90
7296;DHT22;40758;54.038;11.684;2022-09-01T08:45:03;26.40;99.90
7296;DHT22;40758;54.038;11.684;2022-09-01T08:47:38;28.50;73.50
7296;DHT22;40758;54.038;11.684;2022-09-01T08:50:27;28.30;68.10
7296;DHT22;40758;54.038;11.684;2022-09-01T08:53:02;28.30;66.80
7296;DHT22;40758;54.038;11.684;2022-09-01T08:55:42;28.90;56.80
7296;DHT22;40758;54.038;11.684;2022-09-01T08:58:16;29.40;59.40
7296;DHT22;40758;54.038;11.684;2022-09-01T09:00:53;30.50;51.70
7296;DHT22;40758;54.038;11.684;2022-09-01T09:05:29;31.80;43.70
7296;DHT22;40758;54.038;11.684;2022-09-01T09:08:37;30.60;43.60
7296;DHT22;40758;54.038;11.684;2022-09-01T09:11:48;28.10;48.10
7296;DHT22;40758;54.038;11.684;2022-09-01T09:14:45;27.20;52.70
7296;DHT22;40758;54.038;11.684;2022-09-01T09:17:28;27.70;49.90
7296;DHT22;40758;54.038;11.684;2022-09-01T09:20:01;27.70;52.30
7296;DHT22;40758;54.038;11.684;2022-09-01T09:22:33;27.90;47.90
7296;DHT22;40758;54.038;11.684;2022-09-01T09:25:05;28.50;48.00
7296;DHT22;40758;54.038;11.684;2022-09-01T09:27:39;29.40;48.00
7296;DHT22;40758;54.038;11.684;2022-09-01T09:30:11;29.80;44.70
7296;DHT22;40758;54.038;11.684;2022-09-01T09:32:44;29.60;43.00
7296;DHT22;40758;54.038;11.684;2022-09-01T09:35:38;29.80;44.20
7296;DHT22;40758;54.038;11.684;2022-09-01T09:38:19;30.40;44.60
7296;DHT22;40758;54.038;11.684;2022-09-01T09:40:58;31.20;42.20
7296;DHT22;40758;54.038;11.684;2022-09-01T09:43:53;31.20;39.00
7296;DHT22;40758;54.038;11.684;2022-09-01T09:46:32;31.10;38.60
7296;DHT22;40758;54.038;11.684;2022-09-01T09:49:12;30.90;37.60
7296;DHT22;40758;54.038;11.684;2022-09-01T09:52:14;30.80;38.80
7296;DHT22;40758;54.038;11.684;2022-09-01T09:55:00;31.00;37.70
7296;DHT22;40758;54.038;11.684;2022-09-01T09:57:38;31.60;38.70
7296;DHT22;40758;54.038;11.684;2022-09-01T10:00:18;31.80;40.50
7296;DHT22;40758;54.038;11.684;2022-09-01T10:02:58;30.90;39.40
7296;DHT22;40758;54.038;11.684;2022-09-01T10:05:38;30.10;41.90
7296;DHT22;40758;54.038;11.684;2022-09-01T10:08:11;29.70;42.80
7296;DHT22;40758;54.038;11.684;2022-09-01T10:10:49;28.70;45.30
7296;DHT22;40758;54.038;11.684;2022-09-01T10:13:26;29.30;47.80
7296;DHT22;40758;54.038;11.684;2022-09-01T10:16:00;30.20;44.60
7296;DHT22;40758;54.038;11.684;2022-09-01T10:18:36;29.70;43.00
7296;DHT22;40758;54.038;11.684;2022-09-01T10:21:11;28.70;43.90
7296;DHT22;40758;54.038;11.684;2022-09-01T10:23:42;27.80;47.60
7296;DHT22;40758;54.038;11.684;2022-09-01T10:26:16;26.90;51.30
7296;DHT22;40758;54.038;11.684;2022-09-01T10:28:53;27.30;51.60
7296;DHT22;40758;54.038;11.684;2022-09-01T10:31:27;28.10;48.90
7296;DHT22;40758;54.038;11.684;2022-09-01T10:34:01;28.50;46.10
7296;DHT22;40758;54.038;11.684;2022-09-01T10:36:33;27.70;47.20
7296;DHT22;40758;54.038;11.684;2022-09-01T10:39:06;28.40;48.60
7296;DHT22;40758;54.038;11.684;2022-09-01T10:41:58;28.90;43.70
7296;DHT22;40758;54.038;11.684;2022-09-01T10:44:34;28.90;44.50
7296;DHT22;40758;54.038;11.684;2022-09-01T10:47:09;27.60;44.20
7296;DHT22;40758;54.038;11.684;2022-09-01T10:50:01;26.70;48.70
7296;DHT22;40758;54.038;11.684;2022-09-01T10:53:03;26.40;50.10
7296;DHT22;40758;54.038;11.684;2022-09-01T10:55:39;26.30;48.80
7296;DHT22;40758;54.038;11.684;2022-09-01T10:58:27;26.60;49.00
7296;DHT22;40758;54.038;11.684;2022-09-01T11:05:18;27.30;46.50
7296;DHT22;40758;54.038;11.684;2022-09-01T11:07:47;27.50;43.30
7296;DHT22;40758;54.038;11.684;2022-09-01T11:10:39;27.70;44.20
7296;DHT22;40758;54.038;11.684;2022-09-01T11:13:40;27.60;42.50
7296;DHT22;40758;54.038;11.684;2022-09-01T11:16:31;27.50;43.10
7296;DHT22;40758;54.038;11.684;2022-09-01T11:19:30;27.20;44.50
7296;DHT22;40758;54.038;11.684;2022-09-01T11:22:10;26.80;45.20
7296;DHT22;40758;54.038;11.684;2022-09-01T11:28:07;25.70;48.50
7296;DHT22;40758;54.038;11.684;2022-09-01T11:30:55;25.80;46.20
7296;DHT22;40758;54.038;11.684;2022-09-01T11:33:37;25.30;48.50
7296;DHT22;40758;54.038;11.684;2022-09-01T11:36:15;25.60;50.00
7296;DHT22;40758;54.038;11.684;2022-09-01T11:38:55;25.50;47.60
7296;DHT22;40758;54.038;11.684;2022-09-01T11:41:42;25.30;47.80
7296;DHT22;40758;54.038;11.684;2022-09-01T11:44:30;25.50;48.50
7296;DHT22;40758;54.038;11.684;2022-09-01T11:47:12;26.00;47.40
7296;DHT22;40758;54.038;11.684;2022-09-01T11:49:53;26.40;46.70
7296;DHT22;40758;54.038;11.684;2022-09-01T11:52:36;26.50;43.30
7296;DHT22;40758;54.038;11.684;2022-09-01T11:55:09;26.20;47.20
7296;DHT22;40758;54.038;11.684;2022-09-01T11:57:39;26.30;44.40
7296;DHT22;40758;54.038;11.684;2022-09-01T12:00:09;26.40;45.30
7296;DHT22;40758;54.038;11.684;2022-09-01T12:02:43;26.20;44.80
7296;DHT22;40758;54.038;11.684;2022-09-01T12:05:28;26.00;45.60
7296;DHT22;40758;54.038;11.684;2022-09-01T12:08:01;25.70;44.10
7296;DHT22;40758;54.038;11.684;2022-09-01T12:10:35;25.80;45.30
7296;DHT22;40758;54.038;11.684;2022-09-01T12:13:08;26.50;47.90
7296;DHT22;40758;54.038;11.684;2022-09-01T12:15:39;26.80;45.70
7296;DHT22;40758;54.038;11.684;2022-09-01T12:18:30;26.70;45.10
7296;DHT22;40758;54.038;11.684;2022-09-01T12:21:03;26.20;45.80
7296;DHT22;40758;54.038;11.684;2022-09-01T12:23:35;25.60;43.50
7296;DHT22;40758;54.038;11.684;2022-09-01T12:26:10;25.50;47.30
7296;DHT22;40758;54.038;11.684;2022-09-01T12:28:42;25.70;46.50
7296;DHT22;40758;54.038;11.684;2022-09-01T12:31:14;26.00;44.90
7296;DHT22;40758;54.038;11.684;2022-09-01T12:33:46;26.10;45.40
7296;DHT22;40758;54.038;11.684;2022-09-01T12:36:24;26.50;44.00
7296;DHT22;40758;54.038;11.684;2022-09-01T12:38:59;26.80;43.80
7296;DHT22;40758;54.038;11.684;2022-09-01T12:42:02;26.40;44.00
7296;DHT22;40758;54.038;11.684;2022-09-01T12:44:43;26.50;44.30
7296;DHT22;40758;54.038;11.684;2022-09-01T12:47:48;26.10;44.80
7296;DHT22;40758;54.038;11.684;2022-09-01T12:50:35;26.60;44.60
7296;DHT22;40758;54.038;11.684;2022-09-01T12:53:25;26.80;43.70
7296;DHT22;40758;54.038;11.684;2022-09-01T12:56:22;26.80;41.10
7296;DHT22;40758;54.038;11.684;2022-09-01T12:59:07;26.30;44.70
7296;DHT22;40758;54.038;11.684;2022-09-01T13:01:43;26.40;45.60
7296;DHT22;40758;54.038;11.684;2022-09-01T13:05:25;26.20;42.10
7296;DHT22;40758;54.038;11.684;2022-09-01T13:08:03;26.20;44.90
7296;DHT22;40758;54.038;11.684;2022-09-01T13:10:36;26.70;42.60
7296;DHT22;40758;54.038;11.684;2022-09-01T13:13:10;27.10;41.40
7296;DHT22;40758;54.038;11.684;2022-09-01T13:15:42;27.50;43.10
7296;DHT22;40758;54.038;11.684;2022-09-01T13:18:14;27.50;40.30
7296;DHT22;40758;54.038;11.684;2022-09-01T13:20:44;27.30;40.80
7296;DHT22;40758;54.038;11.684;2022-09-01T13:23:13;27.30;41.00
7296;DHT22;40758;54.038;11.684;2022-09-01T13:25:43;27.00;40.50
7296;DHT22;40758;54.038;11.684;2022-09-01T13:28:13;27.30;40.00
7296;DHT22;40758;54.038;11.684;2022-09-01T13:30:44;27.60;40.30
7296;DHT22;40758;54.038;11.684;2022-09-01T13:33:39;27.80;39.90
7296;DHT22;40758;54.038;11.684;2022-09-01T13:36:29;27.70;40.20
7296;DHT22;40758;54.038;11.684;2022-09-01T13:39:18;27.60;38.00
7296;DHT22;40758;54.038;11.684;2022-09-01T13:41:48;27.40;39.50
7296;DHT22;40758;54.038;11.684;2022-09-01T13:44:17;27.80;39.40
7296;DHT22;40758;54.038;11.684;2022-09-01T13:46:46;27.50;38.80
7296;DHT22;40758;54.038;11.684;2022-09-01T13:49:37;27.70;38.00
7296;DHT22;40758;54.038;11.684;2022-09-01T13:52:27;27.70;38.70
7296;DHT22;40758;54.038;11.684;2022-09-01T13:54:56;27.50;38.40
7296;DHT22;40758;54.038;11.684;2022-09-01T13:57:25;27.60;39.10
7296;DHT22;40758;54.038;11.684;2022-09-01T14:00:03;27.70;37.50
7296;DHT22;40758;54.038;11.684;2022-09-01T14:02:33;27.50;39.30
7296;DHT22;40758;54.038;11.684;2022-09-01T14:05:03;27.70;38.60
7296;DHT22;40758;54.038;11.684;2022-09-01T14:07:34;28.10;37.50
7296;DHT22;40758;54.038;11.684;2022-09-01T14:10:03;28.30;38.70
7296;DHT22;40758;54.038;11.684;2022-09-01T14:12:33;28.10;37.00
7296;DHT22;40758;54.038;11.684;2022-09-01T14:15:04;28.10;37.60
7296;DHT22;40758;54.038;11.684;2022-09-01T14:17:42;27.50;37.80
7296;DHT22;40758;54.038;11.684;2022-09-01T14:20:13;27.50;38.30
7296;DHT22;40758;54.038;11.684;2022-09-01T14:22:47;27.90;39.50
7296;DHT22;40758;54.038;11.684;2022-09-01T14:25:18;28.10;39.70
7296;DHT22;40758;54.038;11.684;2022-09-01T14:27:48;28.20;38.20
7296;DHT22;40758;54.038;11.684;2022-09-01T14:30:21;27.80;36.30
7296;DHT22;40758;54.038;11.684;2022-09-01T14:32:57;26.90;38.20
7296;DHT22;40758;54.038;11.684;2022-09-01T14:35:27;26.80;38.90
7296;DHT22;40758;54.038;11.684;2022-09-01T14:38:01;26.90;39.50
7296;DHT22;40758;54.038;11.684;2022-09-01T14:40:35;26.40;41.30
7296;DHT22;40758;54.038;11.684;2022-09-01T14:43:07;26.60;42.30
7296;DHT22;40758;54.038;11.684;2022-09-01T14:45:39;27.10;40.70
7296;DHT22;40758;54.038;11.684;2022-09-01T14:48:13;27.60;40.30
7296;DHT22;40758;54.038;11.684;2022-09-01T14:50:45;28.00;39.00
7296;DHT22;40758;54.038;11.684;2022-09-01T14:53:18;28.50;39.00
7296;DHT22;40758;54.038;11.684;2022-09-01T14:55:48;28.70;38.30
7296;DHT22;40758;54.038;11.684;2022-09-01T14:58:22;29.00;38.70
7296;DHT22;40758;54.038;11.684;2022-09-01T15:00:52;28.70;38.70
7296;DHT22;40758;54.038;11.684;2022-09-01T15:05:19;28.70;37.30
7296;DHT22;40758;54.038;11.684;2022-09-01T15:07:49;28.50;39.70
7296;DHT22;40758;54.038;11.684;2022-09-01T15:10:21;28.80;39.30
7296;DHT22;40758;54.038;11.684;2022-09-01T15:12:56;28.60;39.50
7296;DHT22;40758;54.038;11.684;2022-09-01T15:15:28;28.60;38.40
7296;DHT22;40758;54.038;11.684;2022-09-01T15:18:01;29.10;37.90
7296;DHT22;40758;54.038;11.684;2022-09-01T15:20:35;29.70;37.20
7296;DHT22;40758;54.038;11.684;2022-09-01T15:23:14;29.80;36.90
7296;DHT22;40758;54.038;11.684;2022-09-01T15:25:51;29.80;36.90
7296;DHT22;40758;54.038;11.684;2022-09-01T15:28:23;29.00;36.10
7296;DHT22;40758;54.038;11.684;2022-09-01T15:30:53;28.50;38.30
7296;DHT22;40758;54.038;11.684;2022-09-01T15:33:26;28.90;37.60
7296;DHT22;40758;54.038;11.684;2022-09-01T15:35:56;27.80;38.40
7296;DHT22;40758;54.038;11.684;2022-09-01T15:38:25;27.40;39.90
7296;DHT22;40758;54.038;11.684;2022-09-01T15:40:56;27.60;40.30
7296;DHT22;40758;54.038;11.684;2022-09-01T15:43:29;28.20;38.50
7296;DHT22;40758;54.038;11.684;2022-09-01T15:45:59;28.20;39.20
7296;DHT22;40758;54.038;11.684;2022-09-01T15:48:32;28.10;39.00
7296;DHT22;40758;54.038;11.684;2022-09-01T15:51:28;28.50;39.10
7296;DHT22;40758;54.038;11.684;2022-09-01T15:54:01;28.50;38.50
7296;DHT22;40758;54.038;11.684;2022-09-01T15:56:32;28.80;38.70
7296;DHT22;40758;54.038;11.684;2022-09-01T15:59:04;29.20;40.10
7296;DHT22;40758;54.038;11.684;2022-09-01T16:01:37;29.30;38.50
7296;DHT22;40758;54.038;11.684;2022-09-01T16:04:09;28.60;38.90
7296;DHT22;40758;54.038;11.684;2022-09-01T16:06:47;28.00;40.50
7296;DHT22;40758;54.038;11.684;2022-09-01T16:09:17;27.80;40.50
7296;DHT22;40758;54.038;11.684;2022-09-01T16:11:48;27.60;40.30
7296;DHT22;40758;54.038;11.684;2022-09-01T16:14:16;27.50;40.60
7296;DHT22;40758;54.038;11.684;2022-09-01T16:16:52;27.20;41.60
7296;DHT22;40758;54.038;11.684;2022-09-01T16:19:36;26.80;44.00
7296;DHT22;40758;54.038;11.684;2022-09-01T16:22:16;27.00;43.70
7296;DHT22;40758;54.038;11.684;2022-09-01T16:24:52;27.00;43.40
7296;DHT22;40758;54.038;11.684;2022-09-01T16:27:28;27.10;44.10
7296;DHT22;40758;54.038;11.684;2022-09-01T16:30:02;27.10;43.60
7296;DHT22;40758;54.038;11.684;2022-09-01T16:32:34;26.80;44.20
7296;DHT22;40758;54.038;11.684;2022-09-01T16:35:16;26.80;44.00
7296;DHT22;40758;54.038;11.684;2022-09-01T16:37:52;26.50;43.60
7296;DHT22;40758;54.038;11.684;2022-09-01T16:40:37;26.60;43.90
7296;DHT22;40758;54.038;11.684;2022-09-01T16:43:18;26.50;43.20
7296;DHT22;40758;54.038;11.684;2022-09-01T16:45:58;26.10;43.20
7296;DHT22;40758;54.038;11.684;2022-09-01T16:48:40;25.50;44.80